createdAt,value
2023-03-12T00:02:22.432Z,0
2023-03-12T00:12:21.836Z,0
2023-03-12T00:22:22.417Z,0
2023-03-12T00:32:22.379Z,0
2023-03-12T00:42:22.626Z,0
2023-03-12T00:52:23.155Z,0
2023-03-12T01:02:23.401Z,0
2023-03-12T01:12:24.066Z,0
2023-03-12T01:22:25.264Z,0
2023-03-12T01:32:25.350Z,0
2023-03-12T01:42:26.041Z,0
2023-03-12T01:52:25.786Z,0
2023-03-12T02:02:26.259Z,0
2023-03-12T02:12:26.482Z,706.3
2023-03-12T02:22:26.144Z,706.3
2023-03-12T02:32:26.678Z,706.3
2023-03-12T02:42:26.645Z,706.3
2023-03-12T02:52:26.796Z,706.3
2023-03-12T03:02:07.813Z,0
2023-03-12T03:12:07.399Z,0
2023-03-12T03:22:08.069Z,0
2023-03-12T03:32:08.351Z,0
2023-03-12T03:42:08.609Z,0
2023-03-12T03:52:07.964Z,0
2023-03-12T04:02:08.821Z,0
2023-03-12T04:12:10.099Z,0
2023-03-12T04:22:11.439Z,0
2023-03-12T04:32:12.644Z,0
2023-03-12T04:42:14.511Z,0
2023-03-12T04:52:15.797Z,0
2023-03-12T05:02:17.529Z,0
2023-03-12T05:12:17.226Z,0
2023-03-12T05:22:17.336Z,0
2023-03-12T05:32:17.319Z,0
2023-03-12T05:42:22.099Z,0
2023-03-12T05:52:39.786Z,0
2023-03-12T06:02:57.388Z,0
2023-03-12T06:13:13.738Z,0
2023-03-12T06:23:29.983Z,0
2023-03-12T06:33:47.902Z,0
2023-03-12T06:44:06.159Z,0
2023-03-12T06:54:23.007Z,0
2023-03-12T07:04:41.333Z,0
2023-03-12T07:14:58.666Z,0
2023-03-12T07:25:18.915Z,0
2023-03-12T07:35:35.187Z,0
2023-03-12T07:45:52.912Z,0
2023-03-12T07:56:12.119Z,0
2023-03-12T08:06:28.710Z,0
2023-03-12T08:16:45.036Z,0
2023-03-12T08:27:00.444Z,0
2023-03-12T08:37:18.175Z,0
2023-03-12T08:47:35.260Z,0
2023-03-12T08:57:49.601Z,0
2023-03-12T09:02:11.195Z,0
2023-03-12T09:12:27.745Z,0
2023-03-12T09:22:43.663Z,0
2023-03-12T09:33:00.991Z,0
2023-03-12T09:43:20.659Z,0
2023-03-12T09:53:41.184Z,101.2
2023-03-12T10:04:02.899Z,101.8
2023-03-12T10:14:24.750Z,107.2
2023-03-12T10:24:45.869Z,108.7
2023-03-12T10:35:07.725Z,107.6
2023-03-12T10:45:28.933Z,108.5
2023-03-12T10:55:50.721Z,108.6
2023-03-12T11:06:11.700Z,110
2023-03-12T11:16:32.245Z,110.3
2023-03-12T11:26:50.535Z,110.7
2023-03-12T11:37:12.278Z,112.2
2023-03-12T11:47:33.122Z,112.3
2023-03-12T11:57:49.448Z,117.9
2023-03-12T12:08:05.605Z,119.4
2023-03-12T12:18:20.797Z,117.3
2023-03-12T12:28:37.987Z,117.1
2023-03-12T12:38:54.690Z,120
2023-03-12T12:49:10.636Z,121.4
2023-03-12T12:59:23.859Z,124.4
2023-03-12T13:09:32.383Z,123.5
2023-03-12T13:19:38.836Z,122.8
2023-03-12T13:29:44.112Z,121.6
2023-03-12T13:39:49.806Z,120.5
2023-03-12T13:49:52.978Z,119.6
2023-03-12T13:59:55.500Z,117.8
2023-03-12T14:09:59.313Z,116.4
2023-03-12T14:20:02.129Z,116.4
2023-03-12T14:30:05.203Z,114
2023-03-12T14:40:08.326Z,114
2023-03-12T14:50:11.434Z,112.3
2023-03-12T15:02:08.364Z,104.1
2023-03-12T15:12:11.779Z,108.2
2023-03-12T15:22:14.940Z,107
2023-03-12T15:32:17.081Z,104
2023-03-12T15:42:19.362Z,99.6
2023-03-12T15:52:19.366Z,99.6
2023-03-12T16:02:19.179Z,99.6
2023-03-12T16:12:19.842Z,99.6
2023-03-12T16:22:22.049Z,99.6
2023-03-12T16:32:24.001Z,99.6
2023-03-12T16:42:25.790Z,99.6
2023-03-12T16:52:28.153Z,99.6
2023-03-12T17:02:31.635Z,62.2
2023-03-12T17:12:34.689Z,55.4
2023-03-12T17:22:35.952Z,54.4
2023-03-12T17:32:36.841Z,54.4
2023-03-12T17:42:37.524Z,340.7
2023-03-12T17:52:37.880Z,340.7
2023-03-12T18:02:39.107Z,340.7
2023-03-12T18:12:40.155Z,340.7
2023-03-12T18:22:39.275Z,340.7
2023-03-12T18:32:39.466Z,340.7
2023-03-12T18:42:40.231Z,340.7
2023-03-12T18:52:40.149Z,340.7
2023-03-12T19:02:39.459Z,340.7
2023-03-12T19:12:51.294Z,340.7
2023-03-12T19:22:40.807Z,340.7
2023-03-12T19:32:43.996Z,340.7
2023-03-12T19:42:41.522Z,340.7
2023-03-12T19:52:42.928Z,340.7
2023-03-12T20:02:42.337Z,340.7
2023-03-12T20:12:42.224Z,340.7
2023-03-12T20:22:42.369Z,340.7
2023-03-12T20:32:42.373Z,1304.3
2023-03-12T20:42:42.450Z,1304.3
2023-03-12T20:52:42.823Z,1304.3
2023-03-12T21:02:08.555Z,0
2023-03-12T21:12:07.970Z,0
2023-03-12T21:22:08.479Z,0
2023-03-12T21:32:09.161Z,0
2023-03-12T21:42:09.510Z,0
2023-03-12T21:52:10.268Z,0
2023-03-12T22:02:10.766Z,0
2023-03-12T22:12:11.981Z,0
2023-03-12T22:22:13.499Z,0
2023-03-12T22:32:15.822Z,0
2023-03-12T22:42:17.978Z,0
2023-03-12T22:52:19.180Z,0
2023-03-12T23:02:21.039Z,0
2023-03-12T23:12:21.692Z,0
2023-03-12T23:22:22.800Z,0
2023-03-12T23:32:22.409Z,0
2023-03-12T23:42:23.197Z,0
2023-03-12T23:52:23.489Z,0
